createdAt,value
2018-05-21T00:00:45.396Z,11.67
2018-05-21T00:03:13.013Z,11.50
2018-05-21T00:05:40.669Z,11.50
2018-05-21T00:08:09.125Z,11.50
2018-05-21T00:10:36.704Z,11.60
2018-05-21T00:13:04.334Z,11.43
2018-05-21T00:15:31.911Z,10.37
2018-05-21T00:17:59.496Z,10.67
2018-05-21T00:20:27.131Z,10.13
2018-05-21T00:22:54.731Z,11.00
2018-05-21T00:25:23.099Z,9.97
2018-05-21T00:27:50.763Z,9.87
2018-05-21T00:30:18.320Z,12.07
2018-05-21T00:32:46.728Z,10.33
2018-05-21T00:35:14.410Z,10.10
2018-05-21T00:37:42.004Z,10.00
2018-05-21T00:40:09.604Z,12.67
2018-05-21T00:42:37.213Z,10.67
2018-05-21T00:45:05.236Z,10.07
2018-05-21T00:47:32.858Z,9.67
2018-05-21T00:50:00.426Z,10.43
2018-05-21T00:52:28.758Z,9.77
2018-05-21T00:55:08.298Z,10.73
2018-05-21T00:57:35.844Z,10.77
2018-05-21T01:00:03.435Z,11.23
2018-05-21T01:02:30.996Z,10.87
2018-05-21T01:04:58.603Z,10.20
2018-05-21T01:07:26.818Z,11.90
2018-05-21T01:09:54.418Z,10.27
2018-05-21T01:12:22.835Z,11.20
2018-05-21T01:14:50.403Z,14.07
2018-05-21T01:17:17.968Z,9.63
2018-05-21T01:19:45.619Z,10.07
2018-05-21T01:22:13.206Z,10.87
2018-05-21T01:24:40.916Z,10.03
2018-05-21T01:27:09.377Z,10.63
2018-05-21T01:29:37.010Z,12.07
2018-05-21T01:32:04.584Z,9.63
2018-05-21T01:34:32.174Z,10.30
2018-05-21T01:36:59.736Z,11.43
2018-05-21T01:39:27.314Z,11.30
2018-05-21T01:41:54.940Z,12.70
2018-05-21T01:44:22.485Z,14.10
2018-05-21T01:46:50.976Z,11.70
2018-05-21T01:49:18.528Z,12.83
2018-05-21T01:51:46.169Z,12.13
2018-05-21T01:54:13.968Z,11.13
2018-05-21T01:56:41.596Z,10.80
2018-05-21T01:59:09.200Z,13.33
2018-05-21T02:01:36.804Z,12.00
2018-05-21T02:04:04.361Z,10.70
2018-05-21T02:06:32.000Z,12.53
2018-05-21T02:08:59.612Z,10.93
2018-05-21T02:11:27.218Z,11.20
2018-05-21T02:13:55.578Z,11.13
2018-05-21T02:16:23.354Z,10.60
2018-05-21T02:18:51.048Z,10.97
2018-05-21T02:21:18.676Z,10.93
2018-05-21T02:23:46.313Z,12.30
2018-05-21T02:29:22.712Z,10.73
2018-05-21T02:31:50.563Z,10.73
2018-05-21T02:34:18.331Z,10.70
2018-05-21T02:36:45.984Z,13.63
2018-05-21T02:39:13.639Z,10.67
2018-05-21T02:41:41.308Z,11.23
2018-05-21T02:44:09.030Z,11.30
2018-05-21T02:46:36.653Z,11.23
2018-05-21T02:49:05.169Z,10.97
2018-05-21T02:51:32.912Z,11.00
2018-05-21T02:54:00.548Z,12.13
2018-05-21T02:56:28.124Z,11.77
2018-05-21T02:58:55.778Z,11.63
2018-05-21T03:01:23.471Z,11.00
2018-05-21T03:03:51.131Z,12.70
2018-05-21T03:06:18.891Z,11.27
2018-05-21T03:08:47.490Z,12.27
2018-05-21T03:11:15.115Z,11.77
2018-05-21T03:13:43.680Z,12.13
2018-05-21T03:16:11.302Z,12.77
2018-05-21T03:18:39.016Z,11.53
2018-05-21T03:21:06.773Z,11.23
2018-05-21T03:23:34.595Z,13.43
2018-05-21T03:26:02.346Z,11.63
2018-05-21T03:28:30.106Z,10.97
2018-05-21T03:30:57.804Z,11.10
2018-05-21T03:33:25.394Z,11.20
2018-05-21T03:35:53.097Z,11.70
2018-05-21T03:38:20.900Z,11.13
2018-05-21T03:40:48.723Z,12.20
2018-05-21T03:43:17.280Z,12.27
2018-05-21T03:45:45.744Z,10.97
2018-05-21T03:48:13.360Z,11.13
2018-05-21T03:50:41.111Z,11.77
2018-05-21T03:53:08.916Z,12.20
2018-05-21T03:55:36.664Z,10.83
2018-05-21T03:58:04.276Z,12.77
2018-05-21T04:00:43.808Z,11.23
2018-05-21T04:03:23.419Z,12.50
2018-05-21T04:05:51.090Z,14.47
2018-05-21T04:08:18.790Z,11.23
2018-05-21T04:10:46.530Z,11.07
2018-05-21T04:13:14.232Z,12.23
2018-05-21T04:15:41.805Z,13.67
2018-05-21T04:18:09.488Z,11.80
2018-05-21T04:20:37.093Z,10.93
2018-05-21T04:23:05.472Z,11.27
2018-05-21T04:25:33.267Z,11.40
2018-05-21T04:31:11.316Z,10.87
2018-05-21T04:33:39.061Z,11.03
2018-05-21T04:36:06.756Z,13.30
2018-05-21T04:38:34.409Z,13.33
2018-05-21T04:41:02.085Z,11.83
2018-05-21T04:43:29.873Z,11.00
2018-05-21T04:45:57.622Z,10.80
2018-05-21T04:48:26.344Z,12.17
2018-05-21T04:50:54.199Z,11.97
2018-05-21T04:53:21.976Z,12.27
2018-05-21T04:55:49.626Z,12.47
2018-05-21T04:58:17.924Z,11.53
2018-05-21T05:00:46.378Z,11.87
2018-05-21T05:03:13.997Z,12.80
2018-05-21T05:05:41.668Z,11.83
2018-05-21T05:08:09.347Z,11.97
2018-05-21T05:10:37.019Z,11.17
2018-05-21T05:13:04.849Z,12.30
2018-05-21T05:15:32.699Z,12.03
2018-05-21T05:18:01.034Z,12.73
2018-05-21T05:20:41.638Z,11.53
2018-05-21T05:23:09.445Z,11.03
2018-05-21T05:25:37.144Z,11.30
2018-05-21T05:28:04.756Z,13.53
2018-05-21T05:30:32.420Z,13.03
2018-05-21T05:33:00.214Z,11.33
2018-05-21T05:35:27.884Z,11.60
2018-05-21T05:37:55.542Z,11.27
2018-05-21T05:40:23.219Z,11.40
2018-05-21T05:42:50.851Z,12.83
2018-05-21T05:45:18.573Z,12.73
2018-05-21T05:47:46.286Z,14.30
2018-05-21T05:50:13.968Z,13.77
2018-05-21T05:52:41.666Z,12.27
2018-05-21T05:55:10.132Z,10.90
2018-05-21T05:57:37.918Z,12.17
2018-05-21T06:00:05.627Z,11.13
2018-05-21T06:02:34.160Z,13.00
2018-05-21T06:05:01.764Z,11.43
2018-05-21T06:07:29.574Z,11.77
2018-05-21T06:09:57.182Z,11.43
2018-05-21T06:12:24.953Z,10.83
2018-05-21T06:14:52.628Z,13.37
2018-05-21T06:17:20.357Z,10.63
2018-05-21T06:19:48.192Z,11.03
2018-05-21T06:22:15.919Z,12.03
2018-05-21T06:24:43.566Z,11.80
2018-05-21T06:27:11.529Z,11.60
2018-05-21T06:29:39.314Z,11.07
2018-05-21T06:32:07.013Z,11.17
2018-05-21T06:34:35.651Z,11.47
2018-05-21T06:37:03.466Z,9.33
2018-05-21T06:39:31.980Z,10.20
2018-05-21T06:41:59.799Z,11.93
2018-05-21T06:44:28.532Z,10.90
2018-05-21T06:46:56.308Z,11.07
2018-05-21T06:49:24.128Z,10.07
2018-05-21T06:51:52.703Z,10.47
2018-05-21T06:54:21.178Z,8.97
2018-05-21T06:56:48.791Z,8.30
2018-05-21T06:59:17.826Z,7.57
2018-05-21T07:01:45.612Z,6.73
2018-05-21T07:04:14.117Z,10.40
2018-05-21T07:06:41.832Z,5.53
2018-05-21T07:09:09.777Z,6.33
2018-05-21T07:11:38.199Z,6.50
2018-05-21T07:14:05.991Z,6.30
2018-05-21T07:16:33.628Z,6.87
2018-05-21T07:19:01.386Z,7.80
2018-05-21T07:21:29.172Z,7.97
2018-05-21T07:23:57.783Z,6.40
2018-05-21T07:26:25.536Z,5.00
2018-05-21T07:28:53.333Z,5.50
2018-05-21T07:31:21.924Z,5.40
2018-05-21T07:33:50.858Z,36.90
2018-05-21T07:36:18.617Z,5.77
2018-05-21T07:38:47.207Z,5.77
2018-05-21T07:41:14.791Z,5.10
2018-05-21T07:43:42.544Z,5.77
2018-05-21T07:46:10.228Z,5.43
2018-05-21T07:48:37.905Z,6.73
2018-05-21T07:51:05.592Z,4.80
2018-05-21T07:53:33.262Z,4.97
2018-05-21T07:56:00.908Z,5.17
2018-05-21T07:58:28.640Z,5.17
2018-05-21T08:00:56.440Z,4.80
2018-05-21T08:03:23.981Z,6.13
2018-05-21T08:05:52.562Z,4.30
2018-05-21T08:08:20.196Z,5.97
2018-05-21T08:10:47.838Z,4.67
2018-05-21T08:13:15.902Z,6.30
2018-05-21T08:15:43.565Z,5.00
2018-05-21T08:18:11.170Z,7.13
2018-05-21T08:20:38.836Z,6.33
2018-05-21T08:23:06.546Z,3.10
2018-05-21T08:25:34.259Z,2.77
2018-05-21T08:28:02.149Z,4.17
2018-05-21T08:30:29.855Z,6.10
2018-05-21T08:32:57.620Z,3.07
2018-05-21T08:35:25.962Z,3.83
2018-05-21T08:37:54.350Z,2.47
2018-05-21T08:40:25.793Z,3.77
2018-05-21T08:42:53.654Z,3.43
2018-05-21T08:45:21.496Z,6.97
2018-05-21T08:47:49.314Z,6.80
2018-05-21T08:50:17.133Z,2.60
2018-05-21T08:52:44.847Z,4.63
2018-05-21T08:55:12.492Z,3.37
2018-05-21T08:57:40.138Z,3.60
2018-05-21T09:00:07.775Z,2.90
2018-05-21T09:02:35.604Z,3.60
2018-05-21T09:05:04.033Z,2.50
2018-05-21T09:07:31.778Z,7.83
2018-05-21T09:09:59.404Z,3.80
2018-05-21T09:12:27.107Z,3.70
2018-05-21T09:15:01.381Z,3.27
2018-05-21T09:17:29.055Z,3.80
2018-05-21T09:19:56.772Z,3.20
2018-05-21T09:22:24.448Z,2.43
2018-05-21T09:24:52.200Z,5.13
2018-05-21T09:27:20.041Z,4.13
2018-05-21T09:29:47.818Z,2.40
2018-05-21T09:32:16.368Z,2.77
2018-05-21T09:34:44.102Z,2.70
2018-05-21T09:37:11.856Z,2.60
2018-05-21T09:39:39.548Z,3.60
2018-05-21T09:42:07.313Z,5.00
2018-05-21T09:44:35.227Z,4.37
2018-05-21T09:47:03.084Z,4.53
2018-05-21T09:49:30.784Z,2.70
2018-05-21T09:51:58.512Z,2.60
2018-05-21T09:54:26.334Z,3.93
2018-05-21T09:56:54.897Z,6.30
2018-05-21T09:59:23.416Z,3.90
2018-05-21T10:01:51.246Z,2.83
2018-05-21T10:04:19.012Z,2.97
2018-05-21T10:06:46.661Z,3.07
2018-05-21T10:09:14.652Z,4.13
2018-05-21T10:11:43.258Z,5.47
2018-05-21T10:14:11.067Z,2.23
2018-05-21T10:16:38.845Z,3.23
2018-05-21T10:19:09.490Z,2.70
2018-05-21T10:21:37.308Z,2.97
2018-05-21T10:24:04.999Z,3.95
2018-05-21T10:26:32.732Z,3.35
2018-05-21T10:29:00.602Z,5.05
2018-05-21T10:31:28.440Z,2.57
2018-05-21T10:33:56.266Z,3.78
2018-05-21T10:36:23.936Z,2.33
2018-05-21T10:38:51.658Z,3.12
2018-05-21T10:41:19.680Z,4.40
2018-05-21T10:43:48.343Z,3.85
2018-05-21T10:46:16.326Z,2.85
2018-05-21T10:48:44.124Z,2.10
2018-05-21T10:51:11.856Z,3.17
2018-05-21T10:53:39.617Z,3.95
2018-05-21T10:56:07.449Z,2.30
2018-05-21T10:58:35.294Z,4.62
2018-05-21T11:01:03.449Z,5.05
2018-05-21T11:03:31.156Z,5.25
2018-05-21T11:05:59.074Z,2.65
2018-05-21T11:08:26.842Z,2.95
2018-05-21T11:10:55.284Z,2.97
2018-05-21T11:13:22.904Z,3.67
2018-05-21T11:15:50.763Z,2.95
2018-05-21T11:18:18.574Z,3.45
2018-05-21T11:20:46.226Z,3.75
2018-05-21T11:23:14.034Z,2.87
2018-05-21T11:25:41.807Z,4.72
2018-05-21T11:28:10.517Z,4.85
2018-05-21T11:30:38.199Z,2.45
2018-05-21T11:33:06.875Z,3.05
2018-05-21T11:35:34.639Z,4.12
2018-05-21T11:38:02.367Z,4.15
2018-05-21T11:40:30.882Z,3.42
2018-05-21T11:42:59.648Z,6.95
2018-05-21T11:45:28.242Z,2.87
2018-05-21T11:47:56.132Z,3.05
2018-05-21T11:50:24.034Z,6.80
2018-05-21T11:52:51.900Z,4.30
2018-05-21T11:55:19.572Z,4.05
2018-05-21T11:57:48.077Z,2.92
2018-05-21T12:00:15.919Z,4.82
2018-05-21T12:02:43.684Z,4.40
2018-05-21T12:05:11.432Z,5.05
2018-05-21T12:07:39.295Z,2.75
2018-05-21T12:10:06.906Z,4.18
2018-05-21T12:12:34.688Z,3.25
2018-05-21T12:15:02.545Z,4.20
2018-05-21T12:17:30.246Z,5.62
2018-05-21T12:19:58.013Z,4.47
2018-05-21T12:22:26.119Z,3.12
2018-05-21T12:24:53.910Z,2.67
2018-05-21T12:27:21.573Z,2.40
2018-05-21T12:29:49.299Z,2.60
2018-05-21T12:32:17.008Z,3.37
2018-05-21T12:34:45.520Z,2.83
2018-05-21T12:37:13.316Z,4.43
2018-05-21T12:39:41.047Z,4.17
2018-05-21T12:42:08.831Z,2.70
2018-05-21T12:47:14.945Z,8.43
2018-05-21T12:49:42.795Z,4.73
2018-05-21T12:52:11.392Z,3.80
2018-05-21T12:54:39.232Z,2.47
2018-05-21T12:57:07.109Z,5.13
2018-05-21T12:59:35.572Z,2.50
2018-05-21T13:02:03.486Z,2.58
2018-05-21T13:04:31.954Z,3.30
2018-05-21T13:06:59.722Z,6.07
2018-05-21T13:09:27.341Z,4.17
2018-05-21T13:11:55.003Z,3.20
2018-05-21T13:14:22.625Z,2.67
2018-05-21T13:16:50.471Z,4.35
2018-05-21T13:19:18.301Z,3.85
2018-05-21T13:21:53.460Z,2.63
2018-05-21T13:24:21.036Z,3.43
2018-05-21T13:26:48.717Z,2.73
2018-05-21T13:29:16.539Z,6.63
2018-05-21T13:31:44.424Z,5.40
2018-05-21T13:34:12.874Z,2.87
2018-05-21T13:36:40.683Z,2.60
2018-05-21T13:39:08.903Z,2.80
2018-05-21T13:41:36.772Z,3.27
2018-05-21T13:44:04.536Z,4.13
2018-05-21T13:46:32.349Z,4.73
2018-05-21T13:49:00.101Z,3.97
2018-05-21T13:51:37.267Z,4.50
2018-05-21T13:54:05.204Z,3.07
2018-05-21T13:56:32.910Z,4.47
2018-05-21T13:59:00.803Z,3.80
2018-05-21T14:01:28.588Z,5.10
2018-05-21T14:03:56.365Z,3.07
2018-05-21T14:06:24.118Z,3.00
2018-05-21T14:08:51.958Z,4.50
2018-05-21T14:11:20.416Z,2.80
2018-05-21T14:13:48.943Z,2.60
2018-05-21T14:16:16.880Z,3.73
2018-05-21T14:18:44.577Z,4.20
2018-05-21T14:21:12.486Z,5.40
2018-05-21T14:23:40.299Z,2.73
2018-05-21T14:26:08.116Z,4.90
2018-05-21T14:28:51.568Z,5.83
2018-05-21T14:31:20.300Z,3.40
2018-05-21T14:33:48.429Z,3.30
2018-05-21T14:36:16.112Z,3.20
2018-05-21T14:38:44.595Z,4.97
2018-05-21T14:41:12.387Z,4.87
2018-05-21T14:43:40.144Z,2.70
2018-05-21T14:46:07.942Z,3.37
2018-05-21T14:48:35.629Z,3.77
2018-05-21T14:51:03.382Z,3.20
2018-05-21T14:53:31.010Z,7.10
2018-05-21T14:55:58.798Z,4.90
2018-05-21T14:58:26.432Z,4.00
2018-05-21T15:00:54.063Z,3.40
2018-05-21T15:03:22.486Z,4.00
2018-05-21T15:05:51.088Z,5.47
2018-05-21T15:08:18.984Z,3.37
2018-05-21T15:10:46.904Z,3.40
2018-05-21T15:13:14.708Z,5.40
2018-05-21T15:15:42.408Z,3.00
2018-05-21T15:18:10.188Z,3.27
2018-05-21T15:20:37.932Z,2.97
2018-05-21T15:23:05.751Z,4.50
2018-05-21T15:25:33.520Z,2.63
2018-05-21T15:28:01.284Z,3.37
2018-05-21T15:30:29.046Z,4.60
2018-05-21T15:32:56.832Z,3.17
2018-05-21T15:35:33.864Z,3.27
2018-05-21T15:38:01.745Z,4.63
2018-05-21T15:40:29.552Z,6.87
2018-05-21T15:42:57.334Z,4.80
2018-05-21T15:45:25.001Z,4.93
2018-05-21T15:47:52.767Z,3.93
2018-05-21T15:50:20.551Z,3.30
2018-05-21T15:52:48.437Z,3.40
2018-05-21T15:55:16.129Z,4.90
2018-05-21T15:57:43.721Z,3.30
2018-05-21T16:00:11.364Z,7.43
2018-05-21T16:02:39.224Z,5.20
2018-05-21T16:05:06.934Z,4.33
2018-05-21T16:07:34.637Z,2.90
2018-05-21T16:10:05.267Z,3.60
2018-05-21T16:12:32.947Z,3.23
2018-05-21T16:15:00.578Z,3.63
2018-05-21T16:17:28.251Z,6.00
2018-05-21T16:19:55.902Z,3.63
2018-05-21T16:22:23.577Z,4.00
2018-05-21T16:24:51.239Z,5.47
2018-05-21T16:27:18.918Z,3.67
2018-05-21T16:29:46.633Z,3.43
2018-05-21T16:32:14.344Z,7.83
2018-05-21T16:34:42.091Z,6.30
2018-05-21T16:37:09.713Z,5.97
2018-05-21T16:39:37.365Z,4.63
2018-05-21T16:42:05.054Z,5.47
2018-05-21T16:44:32.743Z,4.53
2018-05-21T16:47:00.347Z,3.90
2018-05-21T16:49:28.019Z,4.30
2018-05-21T16:51:56.635Z,3.87
2018-05-21T16:54:24.384Z,3.53
2018-05-21T16:56:52.139Z,4.00
2018-05-21T16:59:19.918Z,7.27
2018-05-21T17:01:47.665Z,3.87
2018-05-21T17:04:15.296Z,4.33
2018-05-21T17:06:43.004Z,3.97
2018-05-21T17:09:10.728Z,3.70
2018-05-21T17:11:38.457Z,3.80
2018-05-21T17:14:06.044Z,3.97
2018-05-21T17:16:34.472Z,4.20
2018-05-21T17:19:02.145Z,3.50
2018-05-21T17:21:29.863Z,3.93
2018-05-21T17:23:57.614Z,3.83
2018-05-21T17:26:54.785Z,4.00
2018-05-21T17:29:22.521Z,4.40
2018-05-21T17:31:50.177Z,9.13
2018-05-21T17:34:17.859Z,4.90
2018-05-21T17:36:46.379Z,4.30
2018-05-21T17:39:14.092Z,4.30
2018-05-21T17:41:41.826Z,5.07
2018-05-21T17:44:09.583Z,5.73
2018-05-21T17:46:37.258Z,3.87
2018-05-21T17:49:04.939Z,3.63
2018-05-21T17:51:32.560Z,3.87
2018-05-21T17:54:00.291Z,4.27
2018-05-21T17:56:28.644Z,3.80
2018-05-21T17:58:56.379Z,4.93
2018-05-21T18:01:23.947Z,5.83
2018-05-21T18:03:51.643Z,4.57
2018-05-21T18:06:20.105Z,4.30
2018-05-21T18:08:47.821Z,4.23
2018-05-21T18:11:15.603Z,3.90
2018-05-21T18:13:43.299Z,4.90
2018-05-21T18:16:11.069Z,3.83
2018-05-21T18:18:38.847Z,4.33
2018-05-21T18:21:07.249Z,4.33
2018-05-21T18:23:34.954Z,4.20
2018-05-21T18:26:02.810Z,5.00
2018-05-21T18:28:30.605Z,4.40
2018-05-21T18:30:58.439Z,6.67
2018-05-21T18:33:26.213Z,5.00
2018-05-21T18:35:54.039Z,4.60
2018-05-21T18:38:21.830Z,7.83
2018-05-21T18:40:49.623Z,5.17
2018-05-21T18:43:17.360Z,4.80
2018-05-21T18:45:45.155Z,4.53
2018-05-21T18:48:12.741Z,7.27
2018-05-21T18:50:41.254Z,5.07
2018-05-21T18:53:09.002Z,4.77
2018-05-21T18:55:36.701Z,4.97
2018-05-21T18:58:04.335Z,6.50
2018-05-21T19:00:32.014Z,7.90
2018-05-21T19:02:59.676Z,6.03
2018-05-21T19:05:28.023Z,5.87
2018-05-21T19:07:55.674Z,4.50
2018-05-21T19:10:23.336Z,4.60
2018-05-21T19:12:51.802Z,5.27
2018-05-21T19:15:19.454Z,5.60
2018-05-21T19:17:47.121Z,10.73
2018-05-21T19:20:14.706Z,5.37
2018-05-21T19:22:43.081Z,6.20
2018-05-21T19:25:11.553Z,4.83
2018-05-21T19:27:39.229Z,5.97
2018-05-21T19:30:06.768Z,5.97
2018-05-21T19:32:34.389Z,5.33
2018-05-21T19:35:02.005Z,5.03
2018-05-21T19:37:29.533Z,5.30
2018-05-21T19:39:57.060Z,5.83
2018-05-21T19:42:24.646Z,5.23
2018-05-21T19:44:52.198Z,5.67
2018-05-21T19:47:19.852Z,5.17
2018-05-21T19:49:47.464Z,5.33
2018-05-21T19:52:15.038Z,6.37
2018-05-21T19:54:42.672Z,5.03
2018-05-21T19:57:10.271Z,5.23
2018-05-21T19:59:37.904Z,10.27
2018-05-21T20:02:05.471Z,6.53
2018-05-21T20:04:33.906Z,5.37
2018-05-21T20:07:01.465Z,5.93
2018-05-21T20:09:29.009Z,5.77
2018-05-21T20:11:56.530Z,6.30
2018-05-21T20:14:24.098Z,5.97
2018-05-21T20:16:51.696Z,8.70
2018-05-21T20:19:19.303Z,6.43
2018-05-21T20:21:46.873Z,5.80
2018-05-21T20:24:15.271Z,7.03
2018-05-21T20:26:43.045Z,6.90
2018-05-21T20:29:10.672Z,6.27
2018-05-21T20:31:38.295Z,6.97
2018-05-21T20:34:07.056Z,8.00
2018-05-21T20:36:34.656Z,6.87
2018-05-21T20:39:02.397Z,9.13
2018-05-21T20:41:30.837Z,11.53
2018-05-21T20:43:59.206Z,6.60
2018-05-21T20:46:27.555Z,5.77
2018-05-21T20:48:55.171Z,7.03
2018-05-21T20:51:22.783Z,5.60
2018-05-21T20:53:50.371Z,6.30
2018-05-21T20:56:19.590Z,9.27
2018-05-21T20:58:47.157Z,7.03
2018-05-21T21:01:14.833Z,6.20
2018-05-21T21:03:42.480Z,6.23
2018-05-21T21:06:10.127Z,6.20
2018-05-21T21:08:37.693Z,6.43
2018-05-21T21:11:05.357Z,6.63
2018-05-21T21:13:32.967Z,8.30
2018-05-21T21:16:00.577Z,7.10
2018-05-21T21:18:28.155Z,7.00
2018-05-21T21:20:55.780Z,9.77
2018-05-21T21:23:24.148Z,7.63
2018-05-21T21:25:51.652Z,6.57
2018-05-21T21:28:19.285Z,6.13
2018-05-21T21:30:47.593Z,6.80
2018-05-21T21:33:15.210Z,7.13
2018-05-21T21:35:42.743Z,7.30
2018-05-21T21:38:10.395Z,7.03
2018-05-21T21:40:37.988Z,7.00
2018-05-21T21:43:05.604Z,8.27
2018-05-21T21:45:33.254Z,7.03
2018-05-21T21:48:00.831Z,7.30
2018-05-21T21:50:28.382Z,6.80
2018-05-21T21:52:56.004Z,7.43
2018-05-21T21:55:23.599Z,7.10
2018-05-21T21:57:51.150Z,7.47
2018-05-21T22:00:18.709Z,7.40
2018-05-21T22:02:46.317Z,7.97
2018-05-21T22:05:13.891Z,7.93
2018-05-21T22:07:41.463Z,8.87
2018-05-21T22:10:09.138Z,7.63
2018-05-21T22:12:37.427Z,7.50
2018-05-21T22:15:05.043Z,7.77
2018-05-21T22:17:32.624Z,7.70
2018-05-21T22:20:00.244Z,7.33
2018-05-21T22:22:27.903Z,7.10
2018-05-21T22:24:55.497Z,8.43
2018-05-21T22:27:23.074Z,7.57
2018-05-21T22:29:51.417Z,7.67
2018-05-21T22:32:19.006Z,7.97
2018-05-21T22:34:47.385Z,8.63
2018-05-21T22:37:17.032Z,7.30
2018-05-21T22:39:44.714Z,9.43
2018-05-21T22:42:12.250Z,7.70
2018-05-21T22:44:41.794Z,9.87
2018-05-21T22:47:09.444Z,8.83
2018-05-21T22:49:37.065Z,8.57
2018-05-21T22:52:04.775Z,10.10
2018-05-21T22:54:36.331Z,8.67
2018-05-21T22:57:03.954Z,8.53
2018-05-21T22:59:31.502Z,8.50
2018-05-21T23:01:59.160Z,8.63
2018-05-21T23:04:27.629Z,8.50
2018-05-21T23:06:56.019Z,8.00
2018-05-21T23:09:23.588Z,7.53
2018-05-21T23:11:51.257Z,7.63
2018-05-21T23:14:19.004Z,8.90
2018-05-21T23:16:46.591Z,8.17
2018-05-21T23:19:14.156Z,9.10
2018-05-21T23:21:41.907Z,8.37
2018-05-21T23:24:09.707Z,8.60
2018-05-21T23:26:37.469Z,9.70
2018-05-21T23:29:05.189Z,9.43
2018-05-21T23:31:32.920Z,8.83
2018-05-21T23:34:00.540Z,10.30
2018-05-21T23:36:28.166Z,9.60
2018-05-21T23:38:56.626Z,9.57
2018-05-21T23:41:24.337Z,9.57
2018-05-21T23:43:51.988Z,8.47
2018-05-21T23:46:19.577Z,11.63
2018-05-21T23:48:47.293Z,7.93
2018-05-21T23:51:15.611Z,10.67
2018-05-21T23:53:43.226Z,9.10
2018-05-21T23:56:11.614Z,8.93
2018-05-21T23:58:39.226Z,9.63
